メインページ
METAR-TAF:

METAR-TAF

空港 :

ワシントン・ダレス国際空港

ワシントン州, バージニア州, アメリカ合衆国

緯度: 38-56-05N, 経度: 077-26-51W, 海抜: 95m

現時点の気象観測

当レポートは22分前の06:52(UTC)に作成
の風 6kt
気温 23°C
湿度 94%
気圧 1013 hPa
視程: 16.1km
高度14000ftの雲はほとんどない
高度25000ftの雲は散在している

METAR: KIAD 170652Z 19006KT 10SM FEW140 SCT250 23/22 A2991 RMK AO2 SLP125 T02330217

時間: 03:14 (07:14 UTC)

予報

当レポートは1時間40分前の05:34(UTC)に作成
予報は17日の 06時(UTC)から 18日の 12時(UTC)まで有効
の風 6kt
視程: 10km
高度15000ftの雲はほとんどない
高度20000ftの千切れ雲あり
17日の 1500時(UTC)から
南西の風 5kt
視程: 10km
高度7000ftの千切れ雲あり, 積乱雲.
弱いにわか雨, 近辺で激しい雷雨
17日の 2000時(UTC)から
西/北西の風 6kt
視程: 10km
高度5000ftの曇り
弱いにわか雨
18日の 0000時(UTC)から
北西の風 5kt
視程: 10km
高度8000ftの千切れ雲あり

TAF: KIAD 170534Z 1706/1812 18006KT P6SM FEW150 BKN200 FM171500 23005KT P6SM -SHRA VCTS BKN070CB FM172000 29006KT P6SM -SHRA OVC050 FM180000 32005KT P6SM BKN080

4,000以上の空港の気象観測と天気予報(METAR報とTAF報)

利用可能な観測所は地図上に黄色い丸と赤い丸で示す。

丸の上にカーソルを重ねると観測所名を参照できる。

次にクリックすると気象観測と天気予報を参照できる。

マップの切り替え:黒色「×」印の緑ボタンをクリックして拡大、「-」印の緑ボタンをクリックして縮小、緑色の三角印をクリックして隣りの地図に切り替え


METAR-TAF: